Time;durP1;ratioP1;P1;durP2;ratioP2;P2;SDS_P1;SDS_P2;PMS_P1;PMS_P2;Temp;Humidity;BMP_temperature;BMP_pressure;BME280_temperature;BME280_humidity;BME280_pressure;Samples;Min_cycle;Max_cycle;Signal;HPM_P1;HPM_P2
2022/09/07 00:00:50;;;;;;;43.70;9.25;;;;;;;21.82;100.00;97722.50;4969071;28;20916;-57
2022/09/07 00:03:17;;;;;;;39.53;8.43;;;;;;;22.36;100.00;97721.03;4968918;28;20022;-53
2022/09/07 00:05:48;;;;;;;37.95;8.43;;;;;;;21.60;100.00;97729.75;4969067;28;20134;-53
2022/09/07 00:08:15;;;;;;;32.53;7.93;;;;;;;21.71;100.00;97721.66;4984945;28;20085;-53
2022/09/07 00:10:49;;;;;;;48.20;8.65;;;;;;;22.19;100.00;97711.13;4969543;28;20042;-54
2022/09/07 00:13:14;;;;;;;33.35;7.63;;;;;;;22.08;100.00;97704.97;4969867;28;20077;-53
2022/09/07 00:15:40;;;;;;;50.08;9.15;;;;;;;22.47;100.00;97701.41;4970280;28;20043;-52
2022/09/07 00:18:05;;;;;;;44.95;8.75;;;;;;;22.40;100.00;97706.47;4969856;28;20022;-54
2022/09/07 00:20:31;;;;;;;40.50;8.65;;;;;;;22.02;100.00;97708.22;4968011;28;20088;-53
2022/09/07 00:22:56;;;;;;;42.38;8.48;;;;;;;22.13;100.00;97708.06;4969310;28;20031;-54
2022/09/07 00:25:21;;;;;;;44.63;8.25;;;;;;;22.69;100.00;97702.88;4971695;28;20061;-53
2022/09/07 00:27:47;;;;;;;43.40;8.35;;;;;;;22.15;100.00;97707.91;4970789;28;20046;-54
2022/09/07 00:30:12;;;;;;;40.53;8.50;;;;;;;21.66;100.00;97713.25;4968804;28;20060;-53
2022/09/07 00:32:37;;;;;;;45.53;8.98;;;;;;;22.10;100.00;97715.47;4968208;28;20616;-53
2022/09/07 00:35:03;;;;;;;43.30;9.15;;;;;;;21.72;100.00;97718.00;4970033;28;20035;-53
2022/09/07 00:37:29;;;;;;;44.80;9.13;;;;;;;21.47;100.00;97724.72;4971362;28;20042;-55
2022/09/07 00:39:54;;;;;;;41.63;8.07;;;;;;;22.38;100.00;97723.53;4966895;28;20018;-53
2022/09/07 00:42:21;;;;;;;38.92;8.68;;;;;;;20.94;100.00;97723.19;4967231;28;20310;-53
2022/09/07 00:44:58;;;;;;;40.22;9.02;;;;;;;21.13;100.00;97725.03;4971141;28;20023;-54
2022/09/07 00:47:24;;;;;;;43.85;9.00;;;;;;;21.67;100.00;97730.88;4969919;28;20148;-54
2022/09/07 00:49:55;;;;;;;42.75;9.45;;;;;;;21.68;100.00;97729.06;4968016;28;20035;-54
2022/09/07 00:52:23;;;;;;;49.00;9.55;;;;;;;21.52;100.00;97732.25;4969652;28;20047;-55
2022/09/07 00:54:54;;;;;;;38.40;8.70;;;;;;;21.70;100.00;97722.63;4969967;28;20048;-53
2022/09/07 00:57:20;;;;;;;44.78;9.27;;;;;;;21.92;100.00;97726.78;4970522;28;20125;-53
2022/09/07 00:59:49;;;;;;;45.15;9.32;;;;;;;21.64;100.00;97731.16;4968331;28;20357;-54
2022/09/07 01:02:16;;;;;;;43.67;9.38;;;;;;;21.55;100.00;97735.47;4967464;28;20053;-53
2022/09/07 01:04:48;;;;;;;39.05;9.27;;;;;;;21.40;100.00;97728.03;4968832;28;20145;-53
2022/09/07 01:07:13;;;;;;;;;;;;;;;21.58;100.00;97744.13;4969253;28;20101;-54
2022/09/07 01:09:39;;;;;;;43.70;9.15;;;;;;;21.33;100.00;97739.19;4966891;28;19953;-53
2022/09/07 01:12:05;;;;;;;48.83;9.20;;;;;;;21.59;100.00;97738.69;4967343;28;20034;-53
2022/09/07 01:14:38;;;;;;;36.00;8.30;;;;;;;21.83;100.00;97737.44;4970342;28;20081;-53
2022/09/07 01:17:06;;;;;;;41.67;9.10;;;;;;;21.68;100.00;97740.50;4966819;28;20058;-53
2022/09/07 01:19:56;;;;;;;43.75;8.98;;;;;;;21.84;100.00;97731.16;4967676;28;20101;-53
2022/09/07 01:23:07;;;;;;;44.92;9.30;;;;;;;21.61;100.00;97736.72;4967998;28;20057;-53
2022/09/07 01:25:54;;;;;;;36.72;8.63;;;;;;;21.19;100.00;97731.59;4959011;28;20122;-53
2022/09/07 01:28:23;;;;;;;46.42;9.35;;;;;;;21.13;100.00;97727.69;4969010;28;20034;-54
2022/09/07 01:31:09;;;;;;;40.33;9.13;;;;;;;21.32;100.00;97726.03;4983658;28;20039;-55
2022/09/07 01:33:55;;;;;;;40.90;9.52;;;;;;;;;;4966868;28;20038;-54
2022/09/07 01:36:29;;;;;;;47.00;10.00;;;;;;;21.28;100.00;97717.53;4968367;28;20057;-53
2022/09/07 01:39:00;;;;;;;40.42;9.00;;;;;;;21.52;100.00;97726.94;4969115;28;20022;-54
2022/09/07 01:41:25;;;;;;;46.20;9.50;;;;;;;21.37;100.00;97722.00;4967614;28;20073;-54
2022/09/07 01:44:04;;;;;;;37.42;8.13;;;;;;;21.99;100.00;97712.97;4967419;28;20110;-53
2022/09/07 01:46:56;;;;;;;51.47;9.77;;;;;;;21.43;100.00;97722.44;4967247;28;20068;-54
2022/09/07 01:49:55;;;;;;;43.45;9.13;;;;;;;20.92;100.00;97730.44;4959821;28;20039;-55
2022/09/07 01:52:27;;;;;;;38.80;8.95;;;;;;;21.31;100.00;97725.22;4946069;28;20081;-54
2022/09/07 01:55:11;;;;;;;45.60;9.13;;;;;;;20.83;100.00;97720.63;4968881;28;20061;-55
2022/09/07 01:57:45;;;;;;;58.97;10.60;;;;;;;20.94;100.00;97722.34;4982095;28;20050;-53
2022/09/07 02:00:17;;;;;;;39.65;9.02;;;;;;;21.32;100.00;97711.00;4967184;28;20042;-53
2022/09/07 02:02:58;;;;;;;48.55;10.32;;;;;;;21.61;100.00;97704.03;4967765;28;20063;-56
2022/09/07 02:05:35;;;;;;;39.00;8.23;;;;;;;21.63;100.00;97704.75;4968306;28;20755;-54
2022/09/07 02:08:07;;;;;;;38.05;8.90;;;;;;;21.44;100.00;97710.84;4968776;28;20784;-54
2022/09/07 02:10:45;;;;;;;39.30;9.25;;;;;;;21.32;100.00;97711.00;4967688;28;20034;-53
2022/09/07 02:13:31;;;;;;;40.45;9.20;;;;;;;21.21;100.00;97712.91;4975081;28;20027;-54
2022/09/07 02:16:05;;;;;;;47.45;9.95;;;;;;;21.42;100.00;97705.69;4969488;28;20034;-54
2022/09/07 02:18:37;;;;;;;38.22;9.60;;;;;;;21.11;100.00;97704.94;4968445;28;20030;-53
2022/09/07 02:21:06;;;;;;;59.38;10.18;;;;;;;21.22;100.00;97707.47;4965327;28;20649;-53
2022/09/07 02:23:38;;;;;;;43.45;9.20;;;;;;;21.37;100.00;97708.72;4969487;28;20820;-54
2022/09/07 02:26:15;;;;;;;51.15;9.60;;;;;;;21.36;100.00;97712.38;4967456;28;20038;-55
2022/09/07 02:28:41;;;;;;;46.00;9.25;;;;;;;21.64;100.00;97720.53;4965983;28;20614;-54
2022/09/07 02:31:07;;;;;;;61.63;10.48;;;;;;;21.60;100.00;97718.31;4983143;28;20074;-55
2022/09/07 02:33:32;;;;;;;38.97;8.93;;;;;;;20.88;100.00;97726.38;4967096;28;20114;-54
2022/09/07 02:36:00;;;;;;;48.20;9.68;;;;;;;20.29;100.00;97729.69;4966054;28;20037;-53
2022/09/07 02:38:25;;;;;;;46.30;9.30;;;;;;;20.82;100.00;97724.25;4967536;28;20034;-53
2022/09/07 02:40:53;;;;;;;39.20;8.15;;;;;;;21.65;100.00;97735.50;4966808;28;20865;-54
2022/09/07 02:43:21;;;;;;;55.25;10.65;;;;;;;20.78;100.00;97736.09;4967188;28;20035;-52
2022/09/07 02:45:55;;;;;;;45.95;9.52;;;;;;;20.88;100.00;97729.03;4967256;28;20696;-53
2022/09/07 02:48:27;;;;;;;49.92;10.25;;;;;;;20.96;100.00;97728.34;4967528;28;20077;-52
2022/09/07 02:50:55;;;;;;;41.42;9.18;;;;;;;21.09;100.00;97722.81;4966514;28;20141;-53
2022/09/07 02:53:26;;;;;;;59.90;11.13;;;;;;;20.56;100.00;97727.31;4967354;28;20034;-52
2022/09/07 02:56:02;;;;;;;46.05;9.35;;;;;;;20.80;100.00;97726.19;4968944;28;20483;-54
2022/09/07 02:58:47;;;;;;;45.80;9.95;;;;;;;20.87;100.00;97734.47;4967407;28;20035;-54
2022/09/07 03:01:40;;;;;;;46.55;9.75;;;;;;;21.14;100.00;97728.53;4966495;28;20044;-53
2022/09/07 03:04:21;;;;;;;44.00;9.48;;;;;;;21.36;100.00;97724.81;4967248;28;20084;-52
2022/09/07 03:07:22;;;;;;;49.90;9.38;;;;;;;20.90;100.00;97721.78;4965773;28;20035;-52
2022/09/07 03:09:52;;;;;;;45.30;9.88;;;;;;;20.86;100.00;97730.97;4966046;28;20034;-53
2022/09/07 03:12:18;;;;;;;42.95;9.60;;;;;;;21.12;100.00;97735.81;4967426;28;20939;-52
2022/09/07 03:14:44;;;;;;;41.95;9.07;;;;;;;20.77;100.00;97731.78;4963321;28;20681;-53
2022/09/07 03:17:10;;;;;;;37.63;9.35;;;;;;;20.54;100.00;97723.97;4968069;28;20034;-55
2022/09/07 03:19:36;;;;;;;49.88;10.40;;;;;;;20.87;100.00;97721.22;4965727;28;20031;-53
2022/09/07 03:22:02;;;;;;;40.80;9.23;;;;;;;20.97;100.00;97720.28;4966359;28;20385;-55
2022/09/07 03:24:28;;;;;;;44.13;10.07;;;;;;;20.84;100.00;97711.69;4967002;28;20081;-52
2022/09/07 03:26:53;;;;;;;38.22;9.80;;;;;;;21.03;100.00;97720.72;4967368;28;20038;-52
2022/09/07 03:29:19;;;;;;;42.95;9.68;;;;;;;20.92;100.00;97708.41;4966193;28;20038;-52
2022/09/07 03:31:45;;;;;;;56.95;11.52;;;;;;;21.21;100.00;97711.13;4967539;28;20034;-53
2022/09/07 03:34:11;;;;;;;48.83;10.55;;;;;;;20.52;100.00;97703.88;4972888;28;20394;-53
2022/09/07 03:36:36;;;;;;;50.90;10.07;;;;;;;20.86;100.00;97707.13;4972243;28;20046;-54
2022/09/07 03:39:03;;;;;;;45.70;9.85;;;;;;;20.98;100.00;97698.06;4974646;28;20025;-54
2022/09/07 03:41:28;;;;;;;43.85;9.75;;;;;;;20.69;100.00;97702.44;4972046;28;20035;-53
2022/09/07 03:43:54;;;;;;;48.92;9.68;;;;;;;21.04;100.00;97706.47;4972789;28;20103;-53
2022/09/07 03:46:20;;;;;;;40.67;9.07;;;;;;;20.67;100.00;97715.00;4972414;28;20068;-53
2022/09/07 03:48:47;;;;;;;46.38;9.77;;;;;;;20.95;100.00;97708.09;4972244;28;20471;-53
2022/09/07 03:51:15;;;;;;;45.05;9.32;;;;;;;21.61;100.00;97702.22;4971601;28;20038;-53
2022/09/07 03:53:43;;;;;;;45.20;9.93;;;;;;;21.09;100.00;97717.50;4974844;28;20227;-53
2022/09/07 03:56:12;;;;;;;40.90;9.20;;;;;;;21.63;100.00;97721.50;4972977;28;20105;-53
2022/09/07 03:58:38;;;;;;;46.90;10.30;;;;;;;20.45;100.00;97722.09;4974544;28;20018;-53
2022/09/07 04:01:07;;;;;;;53.17;11.13;;;;;;;20.50;100.00;97725.22;4973092;28;20067;-53
2022/09/07 04:03:33;;;;;;;45.58;10.68;;;;;;;20.30;100.00;97718.97;4971263;28;20030;-53
2022/09/07 04:06:00;;;;;;;47.30;10.65;;;;;;;20.45;100.00;97716.81;4973563;28;20038;-53
2022/09/07 04:08:26;;;;;;;42.80;10.13;;;;;;;20.90;100.00;97715.66;4974144;28;20030;-53
2022/09/07 04:10:54;;;;;;;50.60;11.02;;;;;;;20.59;100.00;97712.97;4973506;28;20073;-54
2022/09/07 04:13:19;;;;;;;39.65;9.15;;;;;;;20.67;100.00;97712.34;4972825;28;20831;-54
2022/09/07 04:15:45;;;;;;;44.28;10.40;;;;;;;20.82;100.00;97710.16;4971632;28;20027;-55
2022/09/07 04:18:10;;;;;;;53.60;11.23;;;;;;;20.56;100.00;97708.78;4973779;28;20043;-56
2022/09/07 04:20:35;;;;;;;46.22;9.70;;;;;;;20.96;100.00;97709.78;4972090;28;20063;-53
2022/09/07 04:23:01;;;;;;;43.75;10.35;;;;;;;20.34;100.00;97708.94;4973219;28;20497;-53
2022/09/07 04:25:26;;;;;;;50.25;10.88;;;;;;;20.43;100.00;97713.44;4972253;28;21459;-54
2022/09/07 04:27:52;;;;;;;50.05;10.85;;;;;;;20.71;100.00;97711.09;4972352;28;20101;-53
2022/09/07 04:30:17;;;;;;;55.95;11.40;;;;;;;20.96;100.00;97694.72;4973037;28;20039;-53
2022/09/07 04:32:45;;;;;;;50.22;10.70;;;;;;;21.22;100.00;97704.00;4973261;28;20117;-53
2022/09/07 04:35:10;;;;;;;46.78;10.25;;;;;;;20.76;100.00;97708.88;4972751;28;20707;-53
2022/09/07 04:37:35;;;;;;;42.88;10.82;;;;;;;20.53;100.00;97713.50;4973188;28;20014;-54
2022/09/07 04:40:01;;;;;;;43.95;10.10;;;;;;;20.97;100.00;97709.66;4973212;28;20125;-53
2022/09/07 04:42:26;;;;;;;53.97;11.18;;;;;;;21.22;100.00;97711.94;4970021;28;20045;-53
2022/09/07 04:44:51;;;;;;;51.35;10.70;;;;;;;21.14;100.00;97707.34;4968331;28;20035;-53
2022/09/07 04:47:17;;;;;;;46.22;10.80;;;;;;;21.04;100.00;97717.06;4969360;28;20077;-53
2022/09/07 04:49:42;;;;;;;46.15;9.45;;;;;;;21.29;100.00;97713.91;4967644;28;20956;-55
2022/09/07 04:52:08;;;;;;;59.17;10.65;;;;;;;21.39;100.00;97721.88;4966935;28;20092;-53
2022/09/07 04:54:33;;;;;;;51.33;9.95;;;;;;;21.84;100.00;97709.91;4971368;28;20023;-53
2022/09/07 04:56:59;;;;;;;44.58;10.38;;;;;;;21.73;100.00;97719.69;4971702;28;20085;-55
2022/09/07 04:59:24;;;;;;;40.65;10.35;;;;;;;21.00;100.00;97732.41;4969786;28;20559;-54
2022/09/07 05:01:49;;;;;;;45.28;10.10;;;;;;;21.59;100.00;97738.69;4969248;28;20050;-55
2022/09/07 05:04:15;;;;;;;43.03;10.35;;;;;;;21.74;100.00;97737.31;4970374;28;20493;-54
2022/09/07 05:06:40;;;;;;;47.97;11.20;;;;;;;21.27;100.00;97737.06;4968552;28;20046;-54
2022/09/07 05:09:06;;;;;;;42.33;10.20;;;;;;;21.69;100.00;97744.00;4969827;28;20070;-54
2022/09/07 05:11:31;;;;;;;47.28;10.95;;;;;;;21.36;100.00;97733.59;4967934;28;20041;-54
2022/09/07 05:13:58;;;;;;;41.05;10.15;;;;;;;21.20;100.00;97732.47;4970586;28;20128;-53
2022/09/07 05:16:25;;;;;;;49.33;11.23;;;;;;;21.82;100.00;97733.13;4968556;28;20042;-54
2022/09/07 05:18:58;;;;;;;53.30;9.93;;;;;;;22.64;100.00;97731.72;4968415;28;20027;-54
2022/09/07 05:21:29;;;;;;;41.50;9.60;;;;;;;21.62;100.00;97742.88;4969103;28;20038;-56
2022/09/07 05:23:57;;;;;;;48.70;10.98;;;;;;;21.50;100.00;97744.81;4969042;28;20023;-55
2022/09/07 05:26:24;;;;;;;44.83;10.23;;;;;;;21.89;100.00;97744.81;4969627;28;20123;-55
2022/09/07 05:28:50;;;;;;;43.15;9.80;;;;;;;22.83;100.00;97750.25;4969531;28;20142;-55
2022/09/07 05:31:18;;;;;;;38.22;9.68;;;;;;;22.34;100.00;97744.25;4967616;28;20066;-55
2022/09/07 05:33:51;;;;;;;42.67;9.88;;;;;;;22.17;100.00;97744.97;4968861;28;20444;-58
2022/09/07 05:36:17;;;;;;;45.92;11.25;;;;;;;23.53;100.00;97739.09;4967920;28;20034;-52
2022/09/07 05:38:42;;;;;;;38.47;9.75;;;;;;;23.29;100.00;97745.84;4969189;28;20018;-56
2022/09/07 05:41:16;;;;;;;48.17;11.20;;;;;;;23.45;100.00;97741.66;4966744;28;20133;-53
2022/09/07 05:43:42;;;;;;;43.53;9.90;;;;;;;24.23;100.00;97743.72;4969093;28;20084;-54
2022/09/07 05:46:08;;;;;;;49.95;10.60;;;;;;;24.49;100.00;97733.06;4968753;28;20098;-55
2022/09/07 05:48:34;;;;;;;38.42;9.68;;;;;;;23.79;100.00;97746.34;4969885;28;20038;-54
2022/09/07 05:50:59;;;;;;;38.53;9.15;;;;;;;25.23;100.00;97745.94;4969501;28;20027;-55
2022/09/07 05:53:25;;;;;;;38.53;8.77;;;;;;;25.25;100.00;97746.63;4969647;28;20419;-55
2022/09/07 05:55:51;;;;;;;30.80;8.23;;;;;;;24.21;100.00;97751.06;4966884;28;20045;-54
2022/09/07 05:58:17;;;;;;;44.15;9.73;;;;;;;23.04;100.00;97746.53;4967887;28;20529;-55
2022/09/07 06:00:44;;;;;;;36.60;9.07;;;;;;;24.11;100.00;97744.97;4967474;28;20528;-57
2022/09/07 06:03:10;;;;;;;43.67;9.32;;;;;;;23.40;100.00;97742.13;4967639;28;20157;-54
2022/09/07 06:05:36;;;;;;;37.95;9.23;;;;;;;24.51;100.00;97730.25;4968957;28;20036;-54
2022/09/07 06:08:02;;;;;;;35.60;8.55;;;;;;;24.25;100.00;97733.75;4968525;28;20031;-53
2022/09/07 06:10:30;;;;;;;45.22;9.18;;;;;;;24.67;100.00;97740.22;4968547;28;20058;-54
2022/09/07 06:12:56;;;;;;;26.73;7.70;;;;;;;24.38;100.00;97742.16;4967227;28;20151;-52
2022/09/07 06:15:21;;;;;;;45.53;9.45;;;;;;;24.39;100.00;97743.84;4968575;28;20046;-53
2022/09/07 06:17:47;;;;;;;33.65;8.60;;;;;;;23.15;100.00;97733.03;4968403;28;20022;-53
2022/09/07 06:20:13;;;;;;;38.55;9.23;;;;;;;23.26;100.00;97724.84;4967301;28;20528;-52
2022/09/07 06:22:38;;;;;;;39.38;9.18;;;;;;;23.47;100.00;97731.72;4969258;28;20018;-53
2022/09/07 06:25:04;;;;;;;37.22;8.95;;;;;;;23.81;100.00;97739.06;4967818;28;20087;-52
2022/09/07 06:27:29;;;;;;;41.15;8.73;;;;;;;25.01;100.00;97727.69;4965995;28;20126;-53
2022/09/07 06:29:55;;;;;;;36.28;8.70;;;;;;;24.37;100.00;97732.50;4967945;28;20105;-53
2022/09/07 06:32:20;;;;;;;36.53;8.45;;;;;;;24.61;100.00;97741.66;4968382;28;20038;-55
2022/09/07 06:34:46;;;;;;;42.88;8.88;;;;;;;23.92;100.00;97736.16;4966616;28;20031;-54
2022/09/07 06:37:12;;;;;;;28.05;7.63;;;;;;;25.10;100.00;97736.56;4966783;28;20527;-55
2022/09/07 06:39:37;;;;;;;44.28;9.30;;;;;;;24.94;100.00;97731.16;4966407;28;20102;-53
2022/09/07 06:42:03;;;;;;;32.65;8.13;;;;;;;25.59;100.00;97731.38;4967092;28;20069;-53
2022/09/07 06:44:29;;;;;;;39.38;8.68;;;;;;;25.85;100.00;97724.22;4975277;28;20031;-53
2022/09/07 06:46:55;;;;;;;31.63;8.27;;;;;;;26.70;100.00;97732.69;4967386;28;20413;-53
2022/09/07 06:49:22;;;;;;;32.35;8.20;;;;;;;25.54;100.00;97732.88;4967656;28;20497;-55
2022/09/07 06:51:47;;;;;;;43.55;8.95;;;;;;;25.40;100.00;97737.00;4967856;28;20061;-54
2022/09/07 06:54:13;;;;;;;34.20;8.48;;;;;;;25.25;100.00;97741.31;4968716;28;20064;-54
2022/09/07 06:56:39;;;;;;;33.50;8.93;;;;;;;25.26;100.00;97740.31;4966441;28;20659;-53
2022/09/07 06:59:04;;;;;;;29.42;8.20;;;;;;;24.68;100.00;97748.03;4967167;28;20022;-53
2022/09/07 07:01:32;;;;;;;39.40;8.93;;;;;;;25.42;100.00;97737.69;4968685;28;20581;-54
2022/09/07 07:03:58;;;;;;;47.92;9.85;;;;;;;25.23;100.00;97745.94;4968243;28;20030;-53
2022/09/07 07:06:35;;;;;;;32.78;8.40;;;;;;;24.65;100.00;97743.03;4968893;28;20527;-55
2022/09/07 07:09:01;;;;;;;33.92;8.65;;;;;;;24.97;100.00;97737.00;4969071;28;20030;-53
2022/09/07 07:11:26;;;;;;;30.58;8.32;;;;;;;24.44;100.00;97733.56;4968413;28;20053;-56
2022/09/07 07:13:52;;;;;;;33.10;8.80;;;;;;;25.12;100.00;97729.22;4968700;28;20620;-54
2022/09/07 07:16:18;;;;;;;31.40;8.63;;;;;;;26.75;100.00;97731.34;4969447;28;20058;-53
2022/09/07 07:18:44;;;;;;;38.35;8.45;;;;;;;28.82;100.00;97743.97;4970402;28;20109;-54
2022/09/07 07:21:12;;;;;;;35.95;8.70;;;;;;;30.35;100.00;97740.31;4968245;28;20112;-54
2022/09/07 07:23:38;;;;;;;25.85;7.32;;;;;;;32.66;92.12;97744.19;4970261;28;20645;-54
2022/09/07 07:26:15;;;;;;;34.13;8.18;;;;;;;32.93;81.13;97744.13;4968233;28;20592;-54
2022/09/07 07:28:46;;;;;;;29.98;7.38;;;;;;;32.53;84.29;97738.78;4967933;28;20030;-53
2022/09/07 07:31:13;;;;;;;35.03;7.88;;;;;;;35.54;69.29;97732.91;4967870;28;20121;-55
2022/09/07 07:33:39;;;;;;;27.23;6.85;;;;;;;36.64;64.76;97737.03;4969431;28;20092;-54
2022/09/07 07:36:19;;;;;;;27.05;6.45;;;;;;;35.89;60.11;97741.19;4967719;28;20049;-53
2022/09/07 07:38:47;;;;;;;23.77;6.07;;;;;;;35.01;63.15;97734.38;4968553;28;20027;-54
2022/09/07 07:41:14;;;;;;;27.48;6.75;;;;;;;32.97;70.45;97734.56;4968281;28;20042;-53
2022/09/07 07:43:40;;;;;;;23.10;6.22;;;;;;;31.25;82.53;97726.16;4968273;28;20087;-53
2022/09/07 07:46:05;;;;;;;25.23;6.68;;;;;;;31.35;85.10;97737.38;4969106;28;20122;-53
2022/09/07 07:48:32;;;;;;;23.98;6.63;;;;;;;29.98;96.32;97744.13;4968693;28;20676;-56
2022/09/07 07:50:59;;;;;;;24.40;7.07;;;;;;;29.49;99.40;97736.78;4969541;28;20038;-54
2022/09/07 07:53:25;;;;;;;25.40;7.15;;;;;;;28.87;100.00;97736.19;4969667;28;20630;-53
2022/09/07 07:55:51;;;;;;;34.13;7.40;;;;;;;29.13;100.00;97740.25;4959053;28;20050;-54
2022/09/07 07:58:17;;;;;;;26.08;6.60;;;;;;;29.84;100.00;97734.28;4969189;28;20026;-52
2022/09/07 08:00:43;;;;;;;22.52;6.05;;;;;;;32.60;92.38;97750.44;4966921;28;20651;-53
2022/09/07 08:03:08;;;;;;;23.13;5.85;;;;;;;33.86;80.89;97759.97;4968900;28;20027;-53
2022/09/07 08:05:35;;;;;;;29.13;6.80;;;;;;;32.84;80.04;97759.72;4967465;28;20069;-52
2022/09/07 08:08:00;;;;;;;18.42;5.10;;;;;;;32.40;78.29;97759.34;4968812;28;20027;-55
2022/09/07 08:10:27;;;;;;;26.83;6.05;;;;;;;30.61;89.15;97751.47;4967492;28;20088;-54
2022/09/07 08:12:53;;;;;;;26.85;5.70;;;;;;;30.08;88.58;97743.81;4969420;28;20210;-55
2022/09/07 08:15:18;;;;;;;23.52;5.53;;;;;;;30.79;95.82;97751.81;4967776;28;20113;-54
2022/09/07 08:17:48;;;;;;;25.92;5.88;;;;;;;32.23;85.30;97741.94;4969107;28;20030;-55
2022/09/07 08:20:15;;;;;;;23.38;5.18;;;;;;;32.29;74.39;97754.56;4972153;28;20023;-53
2022/09/07 08:22:40;;;;;;;31.23;6.47;;;;;;;34.88;65.40;97754.31;4972706;28;20054;-53
2022/09/07 08:25:06;;;;;;;19.48;4.60;;;;;;;34.86;62.70;97759.16;4971856;28;20030;-55
2022/09/07 08:27:32;;;;;;;21.38;4.97;;;;;;;35.91;55.88;97765.38;4972123;28;20074;-54
2022/09/07 08:29:59;;;;;;;14.15;4.18;;;;;;;36.19;56.15;97767.50;4972880;28;20065;-53
2022/09/07 08:32:25;;;;;;;16.80;4.20;;;;;;;33.33;60.20;97771.88;4972945;28;20057;-56
2022/09/07 08:34:50;;;;;;;18.65;4.63;;;;;;;34.85;56.81;97772.91;4972232;28;20048;-55
2022/09/07 08:37:17;;;;;;;19.52;4.35;;;;;;;34.21;58.41;97770.38;4972389;28;20878;-53
2022/09/07 08:39:42;;;;;;;16.58;4.00;;;;;;;33.99;59.25;97770.69;4972353;28;20126;-53
2022/09/07 08:42:17;;;;;;;15.05;4.03;;;;;;;35.33;52.76;97772.22;4971437;28;20646;-53
2022/09/07 08:45:01;;;;;;;15.50;4.28;;;;;;;35.66;53.20;97769.06;4973620;28;20052;-57
2022/09/07 08:47:42;;;;;;;16.70;4.30;;;;;;;34.69;55.38;97774.34;4973664;28;20046;-54
2022/09/07 08:50:07;;;;;;;16.53;3.83;;;;;;;35.33;54.88;97774.91;4970874;28;20026;-54
2022/09/07 08:52:55;;;;;;;18.23;4.60;;;;;;;35.31;55.55;97777.03;4974155;28;20392;-56
2022/09/07 08:55:34;;;;;;;18.48;4.18;;;;;;;37.34;50.75;97784.25;4972793;28;20042;-56
2022/09/07 08:58:22;;;;;;;23.98;4.50;;;;;;;38.16;46.57;97796.72;4973139;28;20045;-54
2022/09/07 09:00:48;;;;;;;13.00;3.90;;;;;;;36.35;49.70;97781.44;4971244;28;20084;-55
2022/09/07 09:03:20;;;;;;;16.35;3.92;;;;;;;35.92;48.89;97785.19;4971008;28;20026;-54
2022/09/07 09:06:08;;;;;;;15.40;3.88;;;;;;;35.05;50.62;97789.81;4972035;28;20038;-55
2022/09/07 09:09:02;;;;;;;56.08;5.20;;;;;;;36.60;47.28;97792.09;4972894;28;20043;-54
2022/09/07 09:11:52;;;;;;;13.88;3.78;;;;;;;35.48;49.09;97788.91;4972264;28;20190;-55
2022/09/07 09:14:36;;;;;;;15.48;3.65;;;;;;;36.87;48.76;97794.34;4971704;28;20026;-55
2022/09/07 09:17:11;;;;;;;18.30;3.78;;;;;;;37.06;46.32;97785.00;4969901;28;20038;-55
2022/09/07 09:19:52;;;;;;;16.23;3.58;;;;;;;35.40;49.46;97785.66;4972845;28;21000;-56
2022/09/07 09:22:21;;;;;;;15.32;3.65;;;;;;;35.13;49.22;97775.94;4970039;28;20030;-54
2022/09/07 09:24:50;;;;;;;13.10;3.40;;;;;;;35.14;49.79;97776.75;4974351;28;20042;-55
2022/09/07 09:27:16;;;;;;;16.67;4.22;;;;;;;34.97;50.85;97776.53;4971995;28;20050;-54
2022/09/07 09:29:41;;;;;;;15.23;3.90;;;;;;;35.70;49.06;97775.69;4970352;28;20031;-53
2022/09/07 09:32:30;;;;;;;13.57;3.35;;;;;;;35.08;52.16;97773.06;4971225;28;20039;-55
2022/09/07 09:35:00;;;;;;;11.70;3.42;;;;;;;36.42;48.96;97765.84;4972428;28;20036;-55
2022/09/07 09:37:34;;;;;;;14.57;3.80;;;;;;;39.06;43.65;97755.03;4971428;28;20101;-53
2022/09/07 09:40:00;;;;;;;13.18;3.53;;;;;;;37.34;47.32;97757.03;4970437;28;20057;-55
2022/09/07 09:42:34;;;;;;;16.63;3.90;;;;;;;36.22;46.72;97758.03;4969779;28;20416;-55
2022/09/07 09:45:15;;;;;;;15.43;3.65;;;;;;;36.43;44.80;97751.19;4970955;28;20018;-54
2022/09/07 09:47:48;;;;;;;14.73;3.28;;;;;;;36.95;44.19;97759.47;4970195;28;20030;-56
2022/09/07 09:50:22;;;;;;;17.73;3.63;;;;;;;36.25;44.53;97752.97;4971138;28;20030;-53
2022/09/07 09:52:49;;;;;;;13.02;3.53;;;;;;;37.02;43.66;97759.34;4971205;28;20649;-54
2022/09/07 09:55:31;;;;;;;15.35;3.72;;;;;;;38.68;40.34;97760.22;4972151;28;20554;-54
2022/09/07 09:58:00;;;;;;;14.65;3.50;;;;;;;37.73;41.13;97754.53;4971430;28;20026;-54
2022/09/07 10:00:28;;;;;;;12.13;3.25;;;;;;;39.17;40.29;97751.38;4969489;28;20039;-54
2022/09/07 10:02:58;;;;;;;12.82;2.97;;;;;;;39.77;40.33;97744.13;4971162;28;20033;-56
2022/09/07 10:05:23;;;;;;;14.30;3.60;;;;;;;39.32;40.28;97748.81;4967803;28;20066;-57
2022/09/07 10:07:52;;;;;;;12.53;3.20;;;;;;;37.81;42.48;97750.63;4967174;28;20113;-54
2022/09/07 10:10:18;;;;;;;15.38;3.63;;;;;;;38.40;42.30;97744.81;4968217;28;20285;-54
2022/09/07 10:12:45;;;;;;;27.08;6.00;;;;;;;37.58;41.92;97748.78;4966087;28;20024;-53
2022/09/07 10:15:34;;;;;;;16.30;3.50;;;;;;;37.70;41.11;97746.88;4969078;28;20031;-55
2022/09/07 10:18:04;;;;;;;15.48;3.85;;;;;;;36.45;42.09;97744.47;4970669;28;20530;-54
2022/09/07 10:20:30;;;;;;;16.83;3.90;;;;;;;37.36;43.15;97744.03;4969415;28;20046;-53
2022/09/07 10:22:58;;;;;;;13.57;3.42;;;;;;;37.27;42.38;97737.31;4970894;28;20022;-55
2022/09/07 10:25:29;;;;;;;15.50;3.65;;;;;;;38.04;41.00;97743.38;4971280;28;20034;-53
2022/09/07 10:28:13;;;;;;;13.48;3.35;;;;;;;36.57;42.76;97730.06;4969925;28;20027;-56
2022/09/07 10:30:39;;;;;;;13.90;3.58;;;;;;;35.22;45.55;97729.56;4969651;28;20065;-53
2022/09/07 10:33:14;;;;;;;16.02;3.75;;;;;;;36.82;44.79;97727.13;4972157;28;20022;-53
2022/09/07 10:35:51;;;;;;;12.82;3.58;;;;;;;36.38;44.84;97727.47;4969212;28;20583;-54
2022/09/07 10:38:19;;;;;;;16.75;3.97;;;;;;;35.77;45.51;97731.34;4970279;28;20022;-53
2022/09/07 10:40:57;;;;;;;15.35;4.10;;;;;;;36.07;45.63;97726.72;4968993;28;20068;-56
2022/09/07 10:43:42;;;;;;;11.73;3.47;;;;;;;35.35;46.96;97724.00;4983777;28;20499;-56
2022/09/07 10:46:27;;;;;;;13.18;3.83;;;;;;;35.01;49.01;97723.53;4969619;28;20589;-54
2022/09/07 10:49:11;;;;;;;14.63;3.58;;;;;;;34.18;49.60;97719.38;4969848;28;20049;-54
2022/09/07 10:51:49;;;;;;;16.45;4.05;;;;;;;34.53;49.38;97716.13;4968581;28;20484;-54
2022/09/07 10:54:26;;;;;;;19.92;4.38;;;;;;;35.69;48.62;97714.34;4969769;28;20040;-54
2022/09/07 10:57:10;;;;;;;19.88;4.20;;;;;;;34.82;49.63;97713.78;4969023;28;20070;-56
2022/09/07 11:00:08;;;;;;;19.23;4.13;;;;;;;34.54;50.08;97706.97;4966923;28;20112;-54
2022/09/07 11:02:47;;;;;;;19.65;4.03;;;;;;;34.08;52.66;97703.59;4966307;28;20621;-54
2022/09/07 11:05:43;;;;;;;23.67;4.70;;;;;;;34.16;52.06;97705.22;4971142;28;20481;-53
2022/09/07 11:08:32;;;;;;;20.85;3.92;;;;;;;34.95;50.95;97708.19;4970053;28;20769;-54
2022/09/07 11:11:01;;;;;;;23.60;4.40;;;;;;;34.98;52.14;97694.22;4968768;28;20476;-53
2022/09/07 11:13:32;;;;;;;15.50;3.60;;;;;;;35.80;48.42;97688.31;4968910;28;20078;-54
2022/09/07 11:16:03;;;;;;;18.23;3.65;;;;;;;34.84;49.50;97692.72;4969039;28;20038;-53
2022/09/07 11:18:34;;;;;;;25.15;4.20;;;;;;;33.89;52.34;97694.59;4968992;28;20026;-54
2022/09/07 11:21:04;;;;;;;27.65;4.93;;;;;;;34.30;50.36;97685.13;4969398;28;20060;-55
2022/09/07 11:23:42;;;;;;;25.35;4.35;;;;;;;34.35;50.19;97689.84;4967499;28;20042;-53
2022/09/07 11:26:24;;;;;;;20.60;3.95;;;;;;;34.19;50.47;97677.75;4969403;28;20398;-55
2022/09/07 11:29:09;;;;;;;23.80;4.15;;;;;;;35.09;50.83;97676.31;4971524;28;20060;-54
2022/09/07 11:31:43;;;;;;;26.33;3.88;;;;;;;35.75;49.77;97679.22;4971313;28;20038;-53
2022/09/07 11:34:27;;;;;;;25.65;4.15;;;;;;;35.61;47.24;97667.72;4969714;28;20031;-56